createdAt,value
2023-05-21T00:01:47.380Z,9.29
2023-05-21T00:04:34.834Z,9.33
2023-05-21T00:07:21.982Z,9.36
2023-05-21T00:10:09.225Z,9.38
2023-05-21T00:12:56.280Z,9.32
2023-05-21T00:15:43.502Z,9.46
2023-05-21T00:18:30.485Z,9.46
2023-05-21T00:21:18.016Z,9.50
2023-05-21T00:24:05.104Z,9.51
2023-05-21T00:26:52.318Z,9.52
2023-05-21T00:29:39.342Z,9.49
2023-05-21T00:32:27.021Z,9.52
2023-05-21T00:35:14.497Z,9.29
2023-05-21T00:38:01.804Z,9.48
2023-05-21T00:40:48.783Z,9.52
2023-05-21T00:43:36.128Z,9.51
2023-05-21T00:46:23.220Z,9.47
2023-05-21T00:49:11.226Z,9.49
2023-05-21T00:51:58.512Z,9.50
2023-05-21T00:54:45.878Z,9.41
2023-05-21T00:57:33.864Z,9.42
2023-05-21T01:00:21.334Z,9.43
2023-05-21T01:03:08.565Z,9.32
2023-05-21T01:05:55.824Z,9.35
2023-05-21T01:08:42.765Z,9.32
2023-05-21T01:11:30.144Z,9.11
2023-05-21T01:14:17.611Z,9.29
2023-05-21T01:17:07.640Z,9.11
2023-05-21T01:19:54.979Z,9.28
2023-05-21T01:22:43.995Z,9.25
2023-05-21T01:25:31.135Z,9.31
2023-05-21T01:28:18.374Z,9.27
2023-05-21T01:31:05.503Z,9.34
2023-05-21T01:34:15.977Z,9.34
2023-05-21T01:37:12.032Z,9.35
2023-05-21T01:40:04.203Z,9.34
2023-05-21T01:42:53.728Z,9.33
2023-05-21T01:45:43.760Z,9.35
2023-05-21T01:48:32.828Z,9.27
2023-05-21T01:51:23.860Z,9.25
2023-05-21T01:54:10.907Z,9.33
2023-05-21T01:56:58.550Z,9.30
2023-05-21T01:59:45.933Z,9.31
2023-05-21T02:02:33.173Z,9.31
2023-05-21T02:05:20.527Z,9.26
2023-05-21T02:08:07.969Z,9.29
2023-05-21T02:10:57.960Z,9.29
2023-05-21T02:13:45.519Z,9.30
2023-05-21T02:16:32.922Z,9.31
2023-05-21T02:19:20.435Z,9.30
2023-05-21T02:22:07.533Z,9.30
2023-05-21T02:24:54.845Z,9.28
2023-05-21T02:27:41.757Z,9.27
2023-05-21T02:30:31.343Z,9.24
2023-05-21T02:33:18.270Z,9.20
2023-05-21T02:36:07.121Z,9.19
2023-05-21T02:38:54.172Z,9.20
2023-05-21T02:41:41.563Z,9.22
2023-05-21T02:44:28.615Z,9.22
2023-05-21T02:47:16.320Z,9.20
2023-05-21T02:50:03.423Z,9.23
2023-05-21T02:52:51.712Z,9.25
2023-05-21T02:55:38.979Z,9.24
2023-05-21T02:58:26.319Z,9.30
2023-05-21T03:01:13.329Z,9.32
2023-05-21T03:04:00.796Z,9.30
2023-05-21T03:06:47.874Z,9.33
2023-05-21T03:09:35.226Z,9.32
2023-05-21T03:12:22.318Z,9.32
2023-05-21T03:15:10.103Z,9.29
2023-05-21T03:17:57.247Z,9.23
2023-05-21T03:20:44.687Z,9.13
2023-05-21T03:23:31.712Z,9.14
2023-05-21T03:26:19.416Z,9.15
2023-05-21T03:29:07.001Z,9.13
2023-05-21T03:31:55.978Z,9.14
2023-05-21T03:34:43.434Z,9.17
2023-05-21T03:37:30.698Z,9.19
2023-05-21T03:40:19.194Z,8.96
2023-05-21T03:43:06.499Z,9.21
2023-05-21T03:45:53.925Z,9.23
2023-05-21T03:48:59.101Z,9.28
2023-05-21T03:51:48.148Z,9.29
2023-05-21T03:54:37.568Z,9.29
2023-05-21T03:57:28.265Z,9.36
2023-05-21T04:00:15.366Z,9.37
2023-05-21T04:03:07.565Z,9.37
2023-05-21T04:05:54.872Z,9.40
2023-05-21T04:08:42.924Z,9.41
2023-05-21T04:11:30.109Z,9.41
2023-05-21T04:14:17.199Z,9.47
2023-05-21T04:17:04.727Z,9.50
2023-05-21T04:19:52.318Z,9.51
2023-05-21T04:22:39.558Z,9.52
2023-05-21T04:25:26.982Z,9.55
2023-05-21T04:28:14.367Z,9.38
2023-05-21T04:31:01.524Z,9.64
2023-05-21T04:33:48.916Z,9.72
2023-05-21T04:36:35.930Z,9.78
2023-05-21T04:39:23.086Z,9.80
2023-05-21T04:42:10.430Z,9.85
2023-05-21T04:44:58.998Z,9.95
2023-05-21T04:47:47.620Z,10.05
2023-05-21T04:50:34.763Z,10.11
2023-05-21T04:53:22.572Z,10.16
2023-05-21T04:56:10.761Z,10.18
2023-05-21T04:58:57.874Z,10.21
2023-05-21T05:01:45.767Z,10.35
2023-05-21T05:04:32.890Z,10.41
2023-05-21T05:07:20.032Z,10.48
2023-05-21T05:10:07.144Z,10.56
2023-05-21T05:12:54.433Z,10.61
2023-05-21T05:15:41.727Z,10.67
2023-05-21T05:18:28.877Z,10.71
2023-05-21T05:21:16.111Z,10.76
2023-05-21T05:24:03.319Z,10.78
2023-05-21T05:26:52.225Z,10.84
2023-05-21T05:29:39.446Z,10.86
2023-05-21T05:32:27.250Z,10.90
2023-05-21T05:35:15.013Z,10.95
2023-05-21T05:38:02.274Z,10.96
2023-05-21T05:40:49.495Z,11.02
2023-05-21T05:43:36.595Z,10.98
2023-05-21T05:46:24.043Z,11.02
2023-05-21T05:49:13.166Z,11.07
2023-05-21T05:52:00.804Z,11.07
2023-05-21T05:54:47.948Z,11.10
2023-05-21T05:57:35.449Z,11.14
2023-05-21T06:00:31.635Z,11.25
2023-05-21T06:03:20.280Z,11.31
2023-05-21T06:06:08.122Z,11.36
2023-05-21T06:08:55.409Z,11.40
2023-05-21T06:11:42.549Z,11.43
2023-05-21T06:14:29.772Z,11.47
2023-05-21T06:17:17.194Z,11.49
2023-05-21T06:20:04.767Z,11.59
2023-05-21T06:22:52.184Z,11.65
2023-05-21T06:25:40.368Z,11.46
2023-05-21T06:28:28.758Z,11.47
2023-05-21T06:31:16.361Z,11.78
2023-05-21T06:34:04.572Z,11.81
2023-05-21T06:36:52.956Z,11.81
2023-05-21T06:39:40.370Z,11.85
2023-05-21T06:42:27.824Z,11.86
2023-05-21T06:45:50.023Z,11.86
2023-05-21T06:48:56.162Z,11.89
2023-05-21T06:51:43.175Z,11.93
2023-05-21T06:54:32.059Z,11.96
2023-05-21T06:57:20.976Z,11.98
2023-05-21T07:00:08.365Z,11.99
2023-05-21T07:02:56.306Z,11.85
2023-05-21T07:05:43.655Z,12.06
2023-05-21T07:08:30.849Z,12.09
2023-05-21T07:11:19.025Z,12.15
2023-05-21T07:14:06.257Z,12.22
2023-05-21T07:16:55.874Z,12.24
2023-05-21T07:19:42.984Z,12.23
2023-05-21T07:22:30.418Z,12.26
2023-05-21T07:25:17.604Z,12.30
2023-05-21T07:28:06.637Z,12.29
2023-05-21T07:30:55.453Z,12.35
2023-05-21T07:33:49.657Z,12.43
2023-05-21T07:36:38.515Z,12.40
2023-05-21T07:39:25.603Z,12.49
2023-05-21T07:42:13.046Z,12.53
2023-05-21T07:45:01.234Z,12.58
2023-05-21T07:47:51.516Z,12.49
2023-05-21T07:50:39.485Z,12.60
2023-05-21T07:53:26.691Z,12.62
2023-05-21T07:56:14.808Z,12.64
2023-05-21T07:59:03.085Z,12.65
2023-05-21T08:01:50.362Z,12.63
2023-05-21T08:04:40.040Z,12.67
2023-05-21T08:07:28.252Z,12.74
2023-05-21T08:10:16.686Z,12.77
2023-05-21T08:13:05.886Z,12.79
2023-05-21T08:15:53.590Z,12.81
2023-05-21T08:18:42.001Z,12.85
2023-05-21T08:21:29.181Z,12.86
2023-05-21T08:24:16.599Z,12.73
2023-05-21T08:27:03.554Z,12.89
2023-05-21T08:29:51.501Z,12.89
2023-05-21T08:32:38.702Z,12.91
2023-05-21T08:35:26.800Z,12.88
2023-05-21T08:38:40.380Z,12.96
2023-05-21T08:41:43.689Z,13.02
2023-05-21T08:44:32.431Z,13.07
2023-05-21T08:47:22.683Z,12.92
2023-05-21T08:50:11.391Z,13.12
2023-05-21T08:52:58.584Z,13.14
2023-05-21T08:55:45.854Z,13.18
2023-05-21T08:58:30.965Z,13.22
2023-05-21T09:01:18.541Z,13.28
2023-05-21T09:04:20.139Z,13.36
2023-05-21T09:07:11.716Z,13.44
2023-05-21T09:10:31.150Z,13.50
2023-05-21T09:13:19.246Z,13.57
2023-05-21T09:16:08.195Z,13.65
2023-05-21T09:18:55.696Z,13.71
2023-05-21T09:21:49.568Z,13.80
2023-05-21T09:24:42.015Z,13.90
2023-05-21T09:27:29.303Z,13.98
2023-05-21T09:30:16.326Z,14.00
2023-05-21T09:33:04.875Z,14.14
2023-05-21T09:35:53.256Z,14.20
2023-05-21T09:38:43.165Z,14.31
2023-05-21T09:41:30.109Z,14.47
2023-05-21T09:44:24.567Z,14.55
2023-05-21T09:47:17.535Z,14.84
2023-05-21T09:50:05.888Z,15.03
2023-05-21T09:52:56.695Z,15.25
2023-05-21T09:55:45.257Z,15.49
2023-05-21T09:58:32.265Z,15.72
2023-05-21T10:01:19.556Z,15.94
2023-05-21T10:04:14.581Z,16.21
2023-05-21T10:07:03.911Z,16.46
2023-05-21T10:09:51.490Z,16.66
2023-05-21T10:12:39.895Z,16.77
2023-05-21T10:15:29.880Z,17.01
2023-05-21T10:18:18.768Z,17.17
2023-05-21T10:21:15.568Z,17.26
2023-05-21T10:24:03.615Z,17.43
2023-05-21T10:26:51.380Z,17.55
2023-05-21T10:29:39.528Z,17.63
2023-05-21T10:32:27.501Z,17.76
2023-05-21T10:35:14.720Z,17.91
2023-05-21T10:38:03.601Z,18.01
2023-05-21T10:40:50.673Z,18.11
2023-05-21T10:43:43.794Z,18.23
2023-05-21T10:46:49.810Z,18.38
2023-05-21T10:49:55.061Z,18.49
2023-05-21T10:53:10.811Z,18.67
2023-05-21T10:56:29.756Z,18.88
2023-05-21T10:59:30.354Z,19.06
2023-05-21T11:02:18.049Z,19.24
2023-05-21T11:05:06.105Z,19.33
2023-05-21T11:08:12.745Z,19.49
2023-05-21T11:11:00.721Z,19.38
2023-05-21T11:13:49.868Z,19.71
2023-05-21T11:16:38.093Z,19.91
2023-05-21T11:19:25.244Z,20.07
2023-05-21T11:22:15.182Z,20.04
2023-05-21T11:25:02.358Z,20.34
2023-05-21T11:28:09.630Z,20.51
2023-05-21T11:30:56.983Z,20.63
2023-05-21T11:33:44.264Z,20.65
2023-05-21T11:36:35.967Z,20.79
2023-05-21T11:39:37.038Z,20.91
2023-05-21T11:42:24.261Z,20.99
2023-05-21T11:45:11.454Z,21.04
2023-05-21T11:48:00.481Z,21.08
2023-05-21T11:50:47.541Z,21.05
2023-05-21T11:53:34.945Z,21.08
2023-05-21T11:56:22.563Z,21.08
2023-05-21T11:59:09.756Z,21.07
2023-05-21T12:01:57.006Z,21.05
2023-05-21T12:04:44.102Z,21.04
2023-05-21T12:07:32.128Z,21.06
2023-05-21T12:10:20.861Z,21.07
2023-05-21T12:13:07.943Z,21.07
2023-05-21T12:15:55.218Z,21.08
2023-05-21T12:18:42.412Z,21.05
2023-05-21T12:21:29.670Z,20.99
2023-05-21T12:24:16.860Z,20.82
2023-05-21T12:27:04.222Z,20.82
2023-05-21T12:29:52.417Z,20.73
2023-05-21T12:32:41.428Z,20.41
2023-05-21T12:35:28.841Z,20.47
2023-05-21T12:38:16.243Z,20.37
2023-05-21T12:41:03.378Z,20.26
2023-05-21T12:43:53.821Z,20.10
2023-05-21T12:46:41.216Z,19.91
2023-05-21T12:49:28.469Z,19.74
2023-05-21T12:52:17.032Z,19.59
2023-05-21T12:55:09.733Z,19.45
2023-05-21T12:57:58.132Z,19.32
2023-05-21T13:00:45.225Z,19.23
2023-05-21T13:03:32.362Z,19.12
2023-05-21T13:06:19.976Z,18.98
2023-05-21T13:09:07.249Z,18.60
2023-05-21T13:11:54.239Z,18.68
2023-05-21T13:14:41.434Z,18.48
2023-05-21T13:17:28.492Z,18.32
2023-05-21T13:20:34.170Z,18.19
2023-05-21T13:23:21.145Z,18.00
2023-05-21T13:26:08.246Z,17.82
2023-05-21T13:28:55.276Z,17.63
2023-05-21T13:31:42.396Z,17.45
2023-05-21T13:34:30.967Z,17.32
2023-05-21T13:37:18.448Z,17.23
2023-05-21T13:40:05.964Z,17.03
2023-05-21T13:42:54.090Z,17.04
2023-05-21T13:45:41.427Z,16.87
2023-05-21T13:48:28.684Z,16.75
2023-05-21T13:51:25.515Z,16.67
2023-05-21T13:54:23.748Z,16.49
2023-05-21T13:57:10.941Z,16.51
2023-05-21T13:59:58.204Z,16.38
2023-05-21T14:02:45.795Z,16.25
2023-05-21T14:05:33.350Z,16.22
2023-05-21T14:08:20.550Z,16.21
2023-05-21T14:11:07.755Z,16.18
2023-05-21T14:13:54.799Z,16.16
2023-05-21T14:16:42.123Z,16.05
2023-05-21T14:19:29.329Z,16.08
2023-05-21T14:22:16.715Z,16.01
2023-05-21T14:25:03.715Z,15.90
2023-05-21T14:27:50.962Z,15.84
2023-05-21T14:30:37.931Z,15.81
2023-05-21T14:33:25.141Z,15.63
2023-05-21T14:36:12.154Z,15.75
2023-05-21T14:38:59.394Z,15.71
2023-05-21T14:41:47.788Z,15.67
2023-05-21T14:44:34.992Z,15.60
2023-05-21T14:47:22.210Z,15.52
2023-05-21T14:50:09.488Z,15.52
2023-05-21T14:52:56.483Z,15.33
2023-05-21T14:55:43.789Z,15.43
2023-05-21T14:58:30.787Z,15.44
2023-05-21T15:01:18.229Z,15.37
2023-05-21T15:04:05.261Z,15.50
2023-05-21T15:06:52.673Z,15.48
2023-05-21T15:09:39.721Z,15.48
2023-05-21T15:12:51.907Z,15.56
